createdAt,value
2022-10-02T00:00:51.677Z,10.50
2022-10-02T00:03:23.689Z,10.50
2022-10-02T00:05:57.643Z,10.60
2022-10-02T00:08:29.968Z,10.60
2022-10-02T00:11:03.000Z,10.60
2022-10-02T00:13:37.377Z,10.70
2022-10-02T00:16:09.179Z,10.70
2022-10-02T00:18:37.960Z,10.70
2022-10-02T00:21:10.611Z,10.70
2022-10-02T00:23:41.655Z,10.70
2022-10-02T00:26:14.941Z,10.70
2022-10-02T00:28:50.100Z,10.80
2022-10-02T00:31:32.757Z,10.80
2022-10-02T00:34:09.310Z,10.90
2022-10-02T00:36:48.207Z,10.90
2022-10-02T00:39:27.112Z,11.00
2022-10-02T00:42:28.386Z,10.90
2022-10-02T00:45:31.207Z,10.90
2022-10-02T00:48:08.482Z,10.90
2022-10-02T00:50:46.473Z,11.00
2022-10-02T00:53:24.173Z,11.80
2022-10-02T00:56:04.334Z,11.00
2022-10-02T00:59:05.174Z,11.00
2022-10-02T01:01:41.356Z,11.00
2022-10-02T01:04:12.337Z,11.40
2022-10-02T01:06:40.013Z,11.00
2022-10-02T01:09:06.782Z,11.80
2022-10-02T01:11:33.796Z,11.00
2022-10-02T01:14:02.249Z,11.00
2022-10-02T01:16:29.142Z,11.00
2022-10-02T01:18:55.973Z,11.00
2022-10-02T01:21:30.062Z,13.00
2022-10-02T01:24:02.709Z,11.00
2022-10-02T01:26:31.400Z,11.00
2022-10-02T01:28:58.227Z,13.00
2022-10-02T01:31:25.789Z,11.00
2022-10-02T01:33:53.034Z,11.00
2022-10-02T01:36:21.703Z,11.00
2022-10-02T01:38:49.958Z,11.00
2022-10-02T01:41:16.804Z,10.90
2022-10-02T01:43:49.514Z,11.00
2022-10-02T01:46:32.123Z,12.00
2022-10-02T01:49:30.159Z,11.00
2022-10-02T01:52:16.535Z,11.00
2022-10-02T01:54:57.747Z,11.00
2022-10-02T01:57:37.264Z,11.10
2022-10-02T02:00:10.853Z,11.90
2022-10-02T02:02:47.981Z,11.00
2022-10-02T02:05:27.542Z,11.10
2022-10-02T02:08:05.460Z,11.10
2022-10-02T02:10:45.045Z,11.20
2022-10-02T02:13:17.003Z,11.20
2022-10-02T02:15:53.090Z,11.20
2022-10-02T02:18:25.490Z,11.30
2022-10-02T02:20:55.679Z,11.30
2022-10-02T02:23:27.984Z,11.30
2022-10-02T02:26:03.001Z,11.40
2022-10-02T02:28:32.086Z,11.40
2022-10-02T02:31:03.460Z,11.40
2022-10-02T02:33:36.685Z,11.50
2022-10-02T02:36:09.696Z,11.50
2022-10-02T02:38:40.110Z,11.50
2022-10-02T02:41:12.480Z,12.50
2022-10-02T02:43:44.904Z,11.60
2022-10-02T02:46:18.149Z,11.60
2022-10-02T02:48:49.827Z,11.60
2022-10-02T02:51:21.559Z,12.50
2022-10-02T02:53:53.854Z,11.60
2022-10-02T02:56:21.741Z,11.70
2022-10-02T02:58:53.777Z,11.70
2022-10-02T03:01:22.144Z,11.70
2022-10-02T03:03:49.117Z,11.80
2022-10-02T03:06:33.488Z,11.70
2022-10-02T03:09:01.990Z,11.80
2022-10-02T03:11:41.906Z,11.80
2022-10-02T03:14:22.843Z,11.70
2022-10-02T03:17:01.377Z,13.30
2022-10-02T03:19:43.206Z,11.70
2022-10-02T03:22:14.681Z,11.80
2022-10-02T03:24:48.135Z,11.70
2022-10-02T03:27:21.014Z,11.80
2022-10-02T03:29:55.223Z,11.70
2022-10-02T03:32:26.345Z,11.70
2022-10-02T03:37:21.750Z,11.70
2022-10-02T03:39:50.023Z,11.70
2022-10-02T03:42:26.755Z,11.60
2022-10-02T03:44:53.572Z,11.60
2022-10-02T03:49:48.964Z,11.60
2022-10-02T03:52:17.314Z,11.60
2022-10-02T03:54:44.843Z,11.60
2022-10-02T03:57:17.977Z,11.60
2022-10-02T03:59:50.774Z,11.60
2022-10-02T04:02:24.875Z,11.70
2022-10-02T04:04:58.840Z,11.70
2022-10-02T04:07:30.770Z,11.70
2022-10-02T04:10:14.665Z,11.70
2022-10-02T04:12:47.246Z,11.70
2022-10-02T04:15:21.023Z,11.70
2022-10-02T04:17:58.167Z,11.80
2022-10-02T04:20:32.954Z,11.80
2022-10-02T04:23:06.542Z,11.80
2022-10-02T04:25:39.759Z,11.90
2022-10-02T04:28:11.550Z,11.80
2022-10-02T04:33:12.387Z,11.80
2022-10-02T04:35:50.177Z,11.80
2022-10-02T04:38:31.989Z,11.80
2022-10-02T04:41:16.236Z,11.80
2022-10-02T04:43:55.395Z,13.10
2022-10-02T04:46:42.074Z,11.70
2022-10-02T04:49:26.147Z,11.70
2022-10-02T04:52:07.495Z,11.60
2022-10-02T04:55:02.411Z,11.60
2022-10-02T04:57:54.964Z,11.60
2022-10-02T05:00:23.164Z,11.50
2022-10-02T05:03:05.383Z,11.50
2022-10-02T05:05:51.673Z,11.50
2022-10-02T05:08:46.185Z,11.50
2022-10-02T05:11:30.908Z,11.40
2022-10-02T05:14:27.488Z,11.50
2022-10-02T05:17:07.275Z,11.50
2022-10-02T05:19:54.699Z,11.50
2022-10-02T05:22:44.315Z,12.90
2022-10-02T05:25:32.313Z,11.50
2022-10-02T05:28:12.754Z,11.50
2022-10-02T05:30:48.133Z,11.50
2022-10-02T05:33:34.751Z,11.50
2022-10-02T05:36:30.508Z,11.40
2022-10-02T05:39:05.487Z,11.40
2022-10-02T05:41:44.230Z,11.30
2022-10-02T05:44:16.649Z,11.50
2022-10-02T05:46:49.640Z,11.30
2022-10-02T05:49:19.020Z,11.30
2022-10-02T05:51:55.465Z,11.30
2022-10-02T05:54:33.925Z,11.30
2022-10-02T05:57:08.474Z,11.30
2022-10-02T05:59:42.115Z,12.30
2022-10-02T06:02:20.389Z,13.00
2022-10-02T06:04:57.057Z,11.40
2022-10-02T06:07:25.698Z,11.30
2022-10-02T06:09:58.856Z,11.40
2022-10-02T06:12:33.606Z,11.40
2022-10-02T06:15:04.967Z,11.50
2022-10-02T06:17:37.709Z,12.60
2022-10-02T06:20:14.769Z,11.50
2022-10-02T06:22:47.047Z,11.50
2022-10-02T06:25:19.669Z,11.50
2022-10-02T06:27:53.738Z,11.60
2022-10-02T06:30:21.973Z,12.20
2022-10-02T06:32:54.150Z,11.70
2022-10-02T06:35:34.325Z,11.70
2022-10-02T06:38:16.849Z,11.80
2022-10-02T06:40:51.642Z,11.80
2022-10-02T06:43:40.801Z,12.00
2022-10-02T06:46:22.757Z,12.10
2022-10-02T06:48:57.646Z,12.20
2022-10-02T06:51:35.124Z,12.20
2022-10-02T06:54:19.753Z,12.60
2022-10-02T06:56:59.195Z,12.30
2022-10-02T06:59:45.010Z,13.30
2022-10-02T07:02:29.427Z,12.40
2022-10-02T07:05:09.616Z,12.40
2022-10-02T07:07:49.957Z,12.40
2022-10-02T07:10:29.623Z,12.40
2022-10-02T07:13:25.937Z,12.60
2022-10-02T07:16:15.907Z,12.70
2022-10-02T07:18:49.096Z,12.80
2022-10-02T07:21:25.586Z,12.90
2022-10-02T07:24:02.602Z,13.00
2022-10-02T07:26:48.368Z,13.10
2022-10-02T07:29:27.114Z,13.20
2022-10-02T07:32:11.938Z,13.10
2022-10-02T07:34:47.166Z,13.10
2022-10-02T07:37:23.250Z,13.10
2022-10-02T07:40:06.443Z,13.10
2022-10-02T07:42:47.468Z,13.10
2022-10-02T07:45:28.248Z,13.10
2022-10-02T07:48:17.467Z,13.10
2022-10-02T07:50:59.796Z,13.10
2022-10-02T07:53:39.037Z,13.50
2022-10-02T07:56:09.109Z,13.90
2022-10-02T07:58:38.599Z,13.10
2022-10-02T08:01:12.530Z,13.10
2022-10-02T08:03:45.555Z,13.10
2022-10-02T08:06:13.089Z,13.10
2022-10-02T08:08:46.284Z,13.30
2022-10-02T08:11:17.211Z,13.30
2022-10-02T08:13:49.660Z,13.20
2022-10-02T08:16:22.570Z,14.60
2022-10-02T08:18:57.740Z,13.30
2022-10-02T08:21:26.109Z,13.20
2022-10-02T08:23:57.101Z,13.30
2022-10-02T08:26:35.133Z,13.30
2022-10-02T08:29:06.642Z,13.30
2022-10-02T08:31:34.005Z,13.40
2022-10-02T08:34:12.722Z,13.50
2022-10-02T08:37:14.074Z,13.40
2022-10-02T08:40:06.415Z,13.40
2022-10-02T08:43:00.288Z,13.50
2022-10-02T08:46:02.333Z,13.50
2022-10-02T08:49:18.669Z,13.60
2022-10-02T08:52:10.101Z,13.70
2022-10-02T08:55:22.227Z,13.60
2022-10-02T08:58:34.069Z,13.70
2022-10-02T09:01:17.283Z,13.70
2022-10-02T09:04:05.087Z,13.80
2022-10-02T09:07:15.564Z,15.50
2022-10-02T09:10:20.699Z,13.90
2022-10-02T09:13:29.390Z,14.10
2022-10-02T09:16:08.512Z,14.10
2022-10-02T09:18:56.224Z,14.10
2022-10-02T09:21:43.648Z,14.10
2022-10-02T09:24:47.318Z,14.10
2022-10-02T09:27:59.676Z,14.30
2022-10-02T09:30:55.055Z,14.30
2022-10-02T09:33:59.591Z,14.40
2022-10-02T09:37:12.173Z,14.50
2022-10-02T09:40:08.821Z,14.50
2022-10-02T09:43:06.033Z,14.60
2022-10-02T09:45:55.882Z,14.50
2022-10-02T09:48:52.190Z,14.70
2022-10-02T09:51:51.646Z,14.70
2022-10-02T09:54:44.915Z,14.80
2022-10-02T09:57:31.697Z,14.90
2022-10-02T10:00:11.935Z,15.60
2022-10-02T10:03:08.546Z,15.00
2022-10-02T10:05:59.535Z,15.20
2022-10-02T10:09:14.807Z,15.30
2022-10-02T10:12:09.856Z,15.40
2022-10-02T10:15:17.160Z,15.60
2022-10-02T10:18:26.513Z,15.50
2022-10-02T10:21:31.093Z,15.70
2022-10-02T10:24:39.231Z,15.50
2022-10-02T10:27:43.017Z,15.70
2022-10-02T10:30:44.304Z,15.60
2022-10-02T10:33:50.937Z,15.60
2022-10-02T10:37:09.727Z,15.50
2022-10-02T10:42:56.385Z,15.30
2022-10-02T10:45:51.249Z,15.20
2022-10-02T10:48:33.727Z,15.00
2022-10-02T10:51:18.408Z,14.90
2022-10-02T10:54:27.941Z,15.00
2022-10-02T10:56:59.362Z,15.10
2022-10-02T11:00:02.202Z,15.20
2022-10-02T11:03:08.268Z,15.30
2022-10-02T11:06:03.441Z,15.10
2022-10-02T11:09:03.454Z,15.20
2022-10-02T11:11:36.073Z,15.20
2022-10-02T11:14:20.065Z,15.20
2022-10-02T11:17:21.547Z,15.10
2022-10-02T11:20:06.580Z,15.30
2022-10-02T11:22:58.709Z,15.50
2022-10-02T11:25:36.862Z,15.70
2022-10-02T11:28:38.743Z,15.80
2022-10-02T11:31:19.463Z,15.90
2022-10-02T11:34:09.722Z,15.30
2022-10-02T11:36:59.879Z,15.20
2022-10-02T11:40:06.653Z,14.80
2022-10-02T11:42:57.255Z,14.50
2022-10-02T11:45:56.988Z,14.20
2022-10-02T11:48:56.674Z,14.10
2022-10-02T11:51:46.215Z,14.10
2022-10-02T11:54:27.367Z,14.10
2022-10-02T11:57:17.433Z,14.20
2022-10-02T12:00:04.089Z,14.20
2022-10-02T12:02:35.886Z,14.20
2022-10-02T12:05:21.941Z,14.10
2022-10-02T12:08:01.403Z,14.00
2022-10-02T12:10:47.454Z,14.10
2022-10-02T12:13:42.380Z,14.10
2022-10-02T12:16:19.265Z,14.20
2022-10-02T12:19:00.811Z,14.20
2022-10-02T12:22:03.890Z,14.20
2022-10-02T12:25:01.054Z,14.30
2022-10-02T12:27:40.242Z,14.50
2022-10-02T12:30:10.988Z,14.60
2022-10-02T12:32:54.238Z,14.70
2022-10-02T12:35:36.492Z,14.80
2022-10-02T12:38:16.168Z,14.90
2022-10-02T12:40:52.522Z,15.10
2022-10-02T12:43:53.113Z,15.50
2022-10-02T12:46:38.645Z,15.40
2022-10-02T12:49:15.161Z,15.80
2022-10-02T12:51:59.119Z,15.50
2022-10-02T12:54:55.581Z,17.20
2022-10-02T12:57:51.823Z,15.50
2022-10-02T13:00:20.594Z,15.30
2022-10-02T13:03:13.225Z,15.30
2022-10-02T13:06:06.817Z,15.20
2022-10-02T13:09:07.389Z,14.80
2022-10-02T13:11:46.448Z,14.80
2022-10-02T13:14:32.361Z,14.50
2022-10-02T13:17:12.317Z,14.10
2022-10-02T13:19:42.590Z,13.80
2022-10-02T13:22:14.286Z,13.60
2022-10-02T13:24:52.669Z,13.50
2022-10-02T13:27:34.217Z,13.40
2022-10-02T13:30:10.606Z,13.40
2022-10-02T13:32:59.157Z,13.30
2022-10-02T13:35:44.739Z,13.30
2022-10-02T13:38:31.945Z,13.20
2022-10-02T13:41:08.353Z,13.20
2022-10-02T13:43:51.388Z,13.30
2022-10-02T13:46:44.902Z,13.40
2022-10-02T13:49:20.820Z,13.60
2022-10-02T13:51:55.284Z,13.70
2022-10-02T13:54:42.734Z,13.70
2022-10-02T13:57:19.792Z,13.70
2022-10-02T14:00:00.885Z,13.90
2022-10-02T14:02:58.331Z,13.90
2022-10-02T14:05:42.486Z,14.10
2022-10-02T14:08:26.439Z,14.20
2022-10-02T14:11:04.184Z,14.30
2022-10-02T14:13:42.248Z,14.40
2022-10-02T14:16:30.412Z,14.40
2022-10-02T14:19:26.757Z,14.50
2022-10-02T14:22:05.002Z,14.50
2022-10-02T14:25:00.804Z,14.50
2022-10-02T14:27:56.736Z,14.50
2022-10-02T14:30:29.664Z,14.50
2022-10-02T14:33:06.882Z,14.60
2022-10-02T14:35:49.598Z,14.50
2022-10-02T14:38:36.124Z,14.90
2022-10-02T14:41:18.100Z,14.60
2022-10-02T14:44:10.643Z,14.60
2022-10-02T14:46:51.436Z,14.60
2022-10-02T14:49:31.429Z,14.60
2022-10-02T14:52:05.299Z,14.60
2022-10-02T14:54:47.746Z,14.60
2022-10-02T14:57:31.282Z,14.50
2022-10-02T15:00:08.355Z,14.50
2022-10-02T15:03:01.862Z,14.50
2022-10-02T15:06:02.287Z,14.60
2022-10-02T15:08:35.187Z,14.70
2022-10-02T15:11:05.230Z,14.90
2022-10-02T15:13:39.708Z,15.00
2022-10-02T15:16:33.618Z,15.20
2022-10-02T15:19:09.638Z,15.10
2022-10-02T15:21:44.924Z,15.20
2022-10-02T15:24:28.151Z,15.30
2022-10-02T15:27:07.278Z,15.30
2022-10-02T15:29:44.708Z,15.20
2022-10-02T15:32:35.730Z,15.00
2022-10-02T15:35:18.157Z,14.90
2022-10-02T15:38:01.762Z,14.90
2022-10-02T15:40:36.005Z,14.90
2022-10-02T15:43:25.917Z,14.90
2022-10-02T15:45:58.688Z,14.80
2022-10-02T15:48:43.834Z,14.80
2022-10-02T15:51:23.976Z,14.70
2022-10-02T15:53:54.811Z,14.60
2022-10-02T15:56:52.746Z,14.50
2022-10-02T15:59:49.184Z,14.50
2022-10-02T16:02:32.152Z,14.40
2022-10-02T16:05:13.481Z,14.30
2022-10-02T16:07:58.065Z,14.40
2022-10-02T16:10:26.709Z,14.40
2022-10-02T16:13:21.802Z,14.40
2022-10-02T16:15:52.347Z,14.30
2022-10-02T16:18:46.079Z,14.30
2022-10-02T16:21:37.201Z,14.30
2022-10-02T16:24:20.480Z,14.30
2022-10-02T16:27:11.834Z,14.30
2022-10-02T16:29:48.129Z,14.40
2022-10-02T16:32:27.441Z,14.40
2022-10-02T16:35:45.101Z,14.50
2022-10-02T16:38:18.437Z,14.50
2022-10-02T16:40:56.023Z,14.40
2022-10-02T16:43:49.782Z,14.30
2022-10-02T16:46:24.468Z,14.30
2022-10-02T16:48:56.718Z,14.30
2022-10-02T16:51:33.468Z,14.20
2022-10-02T16:54:13.453Z,14.20
2022-10-02T16:56:43.785Z,14.10
2022-10-02T16:59:15.845Z,14.30
2022-10-02T17:02:06.018Z,13.90
2022-10-02T17:04:45.182Z,14.10
2022-10-02T17:07:24.971Z,14.00
2022-10-02T17:09:55.588Z,14.00
2022-10-02T17:12:26.500Z,14.00
2022-10-02T17:14:56.934Z,13.90
2022-10-02T17:17:33.731Z,14.60
2022-10-02T17:20:14.844Z,14.00
2022-10-02T17:22:49.966Z,13.90
2022-10-02T17:25:27.033Z,13.90
2022-10-02T17:27:57.901Z,13.90
2022-10-02T17:30:27.277Z,13.90
2022-10-02T17:33:07.019Z,13.90
2022-10-02T17:35:43.270Z,14.00
2022-10-02T17:38:34.650Z,13.80
2022-10-02T17:41:12.750Z,13.80
2022-10-02T17:43:50.607Z,13.70
2022-10-02T17:46:36.735Z,13.60
2022-10-02T17:49:17.302Z,13.60
2022-10-02T17:51:55.415Z,13.60
2022-10-02T17:55:05.938Z,13.60
2022-10-02T17:57:50.199Z,13.60
2022-10-02T18:00:21.815Z,13.40
2022-10-02T18:03:12.279Z,13.40
2022-10-02T18:05:53.393Z,13.40
2022-10-02T18:08:46.282Z,13.40
2022-10-02T18:11:41.774Z,13.40
2022-10-02T18:14:21.698Z,14.30
2022-10-02T18:16:55.128Z,13.20
2022-10-02T18:19:26.314Z,13.10
2022-10-02T18:22:08.198Z,13.10
2022-10-02T18:24:54.119Z,13.00
2022-10-02T18:27:39.768Z,13.10
2022-10-02T18:30:15.547Z,13.00
2022-10-02T18:33:25.201Z,13.80
2022-10-02T18:36:12.554Z,13.10
2022-10-02T18:38:53.703Z,13.10
2022-10-02T18:41:36.255Z,15.20
2022-10-02T18:44:17.383Z,14.00
2022-10-02T18:46:53.900Z,13.00
2022-10-02T18:49:42.305Z,13.00
2022-10-02T18:52:48.334Z,12.90
2022-10-02T18:55:37.942Z,12.90
2022-10-02T18:58:21.357Z,12.80
2022-10-02T19:01:17.651Z,12.80
2022-10-02T19:04:03.926Z,12.80
2022-10-02T19:06:34.025Z,12.90
2022-10-02T19:09:17.762Z,12.80
2022-10-02T19:11:47.744Z,12.80
2022-10-02T19:14:15.658Z,12.90
2022-10-02T19:16:58.548Z,12.80
2022-10-02T19:19:27.781Z,12.90
2022-10-02T19:21:59.331Z,12.60
2022-10-02T19:24:30.430Z,12.60
2022-10-02T19:27:02.031Z,12.60
2022-10-02T19:29:36.674Z,12.60
2022-10-02T19:32:13.077Z,12.60
2022-10-02T19:34:42.171Z,12.50
2022-10-02T19:37:15.329Z,12.40
2022-10-02T19:39:49.161Z,12.50
2022-10-02T19:42:21.022Z,12.50
2022-10-02T19:44:51.125Z,12.50
2022-10-02T19:47:27.133Z,12.40
2022-10-02T19:49:56.840Z,12.30
2022-10-02T19:52:35.922Z,12.30
2022-10-02T19:55:16.238Z,12.30
2022-10-02T19:57:47.828Z,12.30
2022-10-02T20:00:16.597Z,12.30
2022-10-02T20:02:46.176Z,12.30
2022-10-02T20:05:21.022Z,12.30
2022-10-02T20:07:50.162Z,12.20
2022-10-02T20:10:23.258Z,12.20
2022-10-02T20:12:56.359Z,12.10
2022-10-02T20:15:45.375Z,12.10
2022-10-02T20:18:14.444Z,12.10
2022-10-02T20:20:44.586Z,12.00
2022-10-02T20:23:15.838Z,12.00
2022-10-02T20:25:46.403Z,12.00
2022-10-02T20:28:20.320Z,12.00
2022-10-02T20:30:50.862Z,12.00
2022-10-02T20:33:24.426Z,11.90
2022-10-02T20:35:56.975Z,11.70
2022-10-02T20:38:29.791Z,13.60
2022-10-02T20:41:03.118Z,11.80
2022-10-02T20:43:36.997Z,11.80
2022-10-02T20:46:27.161Z,11.80
2022-10-02T20:49:21.057Z,11.70
2022-10-02T20:52:29.757Z,11.70
2022-10-02T20:54:59.512Z,11.80
2022-10-02T20:58:02.063Z,11.70
2022-10-02T21:00:42.813Z,11.80
2022-10-02T21:03:25.665Z,11.70
2022-10-02T21:06:18.403Z,11.70
2022-10-02T21:09:10.527Z,11.70
2022-10-02T21:12:05.634Z,11.60
2022-10-02T21:14:59.117Z,11.60
2022-10-02T21:18:14.062Z,11.60
2022-10-02T21:20:59.080Z,11.50
2022-10-02T21:23:58.389Z,11.50
2022-10-02T21:26:58.720Z,11.50
2022-10-02T21:29:46.295Z,11.50
2022-10-02T21:32:33.682Z,11.60
2022-10-02T21:35:13.061Z,11.50
2022-10-02T21:37:55.118Z,11.50
2022-10-02T21:41:07.567Z,11.40
2022-10-02T21:44:10.549Z,11.50
2022-10-02T21:47:10.256Z,11.50
2022-10-02T21:50:14.192Z,11.50
2022-10-02T21:53:23.635Z,11.40
2022-10-02T21:56:08.484Z,11.40
2022-10-02T21:59:02.069Z,11.40
2022-10-02T22:02:08.616Z,11.40
2022-10-02T22:05:06.413Z,11.50
2022-10-02T22:07:43.991Z,11.50
2022-10-02T22:10:20.937Z,11.40
2022-10-02T22:13:13.868Z,11.40
2022-10-02T22:15:49.473Z,11.50
2022-10-02T22:18:26.030Z,11.40
2022-10-02T22:21:11.130Z,11.40
2022-10-02T22:24:00.921Z,11.30
2022-10-02T22:26:43.256Z,11.30
2022-10-02T22:29:17.272Z,11.30
2022-10-02T22:32:19.808Z,11.30
2022-10-02T22:34:56.573Z,11.40
2022-10-02T22:37:45.038Z,11.40
2022-10-02T22:43:04.686Z,11.40
2022-10-02T22:45:39.923Z,11.30
2022-10-02T22:48:10.752Z,11.30
2022-10-02T22:50:47.920Z,12.60
2022-10-02T22:53:20.672Z,13.10
2022-10-02T22:55:51.792Z,11.20
2022-10-02T22:58:23.139Z,13.00
2022-10-02T23:00:58.391Z,13.10
2022-10-02T23:03:32.408Z,13.60
2022-10-02T23:06:03.665Z,11.40
2022-10-02T23:08:34.018Z,12.90
2022-10-02T23:11:08.867Z,13.20
2022-10-02T23:13:44.847Z,11.10
2022-10-02T23:16:20.760Z,11.10
2022-10-02T23:18:54.203Z,11.10
2022-10-02T23:21:33.209Z,11.10
2022-10-02T23:24:06.873Z,11.10
2022-10-02T23:26:38.967Z,11.10
2022-10-02T23:29:24.738Z,11.00
2022-10-02T23:32:00.457Z,11.00
2022-10-02T23:34:38.175Z,11.00
2022-10-02T23:37:15.857Z,11.00
2022-10-02T23:39:49.498Z,11.10
2022-10-02T23:42:21.542Z,11.00
2022-10-02T23:44:55.230Z,11.00
2022-10-02T23:47:32.766Z,11.00
2022-10-02T23:53:05.649Z,11.10
2022-10-02T23:56:03.453Z,11.10
2022-10-02T23:58:49.574Z,11.10
